createdAt,value
2022-11-15T05:55:15.056Z,88.24
2022-11-15T05:58:02.613Z,88.13
2022-11-15T06:00:49.373Z,87.91
2022-11-15T06:03:35.182Z,88.01
2022-11-15T06:06:22.491Z,88.09
2022-11-15T06:09:08.863Z,87.80
2022-11-15T06:11:56.459Z,87.98
2022-11-15T06:14:42.648Z,87.87
2022-11-15T06:17:29.452Z,87.80
2022-11-15T06:20:16.333Z,87.97
2022-11-15T06:23:05.755Z,87.49
2022-11-15T06:25:51.735Z,87.81
2022-11-15T06:28:39.830Z,87.85
2022-11-15T06:31:28.342Z,88.04
2022-11-15T06:34:14.076Z,88.02
2022-11-15T06:37:00.080Z,88.11
2022-11-15T06:39:47.155Z,88.29
2022-11-15T06:42:33.013Z,88.29
2022-11-15T06:45:18.794Z,88.20
2022-11-15T06:48:05.743Z,88.21
2022-11-15T06:50:56.608Z,88.34
2022-11-15T06:53:43.424Z,88.35
2022-11-15T06:56:30.178Z,88.27
2022-11-15T06:59:16.863Z,88.12
2022-11-15T07:02:03.230Z,88.23
2022-11-15T07:04:50.961Z,88.09
2022-11-15T07:07:39.705Z,88.03
2022-11-15T07:10:28.467Z,88.11
2022-11-15T07:13:14.567Z,88.21
2022-11-15T07:20:49.499Z,88.22
2022-11-15T07:23:39.633Z,88.38
2022-11-15T07:26:26.759Z,88.38
2022-11-15T07:29:12.770Z,88.15
2022-11-15T07:31:58.508Z,88.43
2022-11-15T07:34:46.606Z,88.47
2022-11-15T07:37:32.485Z,88.79
2022-11-15T07:40:19.589Z,88.61
2022-11-15T07:43:08.511Z,88.45
2022-11-15T07:45:59.129Z,88.32
2022-11-15T07:48:47.442Z,88.46
2022-11-15T07:51:33.461Z,88.37
2022-11-15T07:54:19.252Z,88.60
2022-11-15T07:57:08.016Z,88.72
2022-11-15T07:59:55.419Z,88.49
2022-11-15T08:02:44.439Z,88.66
2022-11-15T08:05:30.519Z,88.43
2022-11-15T08:08:16.870Z,88.55
2022-11-15T08:11:03.471Z,88.49
2022-11-15T08:13:49.196Z,88.72
2022-11-15T08:16:36.680Z,88.68
2022-11-15T08:19:22.504Z,88.81
2022-11-15T08:22:10.196Z,88.72
2022-11-15T08:24:55.984Z,88.55
2022-11-15T08:27:42.927Z,88.71
2022-11-15T08:30:31.224Z,88.78
2022-11-15T08:33:17.342Z,88.93
2022-11-15T08:36:04.339Z,88.55
2022-11-15T08:38:51.552Z,88.60
2022-11-15T08:41:39.279Z,88.91
2022-11-15T08:44:25.564Z,88.52
2022-11-15T08:47:17.120Z,88.84
2022-11-15T08:50:05.232Z,88.90
2022-11-15T08:52:54.085Z,88.91
2022-11-15T08:55:41.544Z,89.10
2022-11-15T08:58:27.853Z,89.01
2022-11-15T09:01:19.330Z,88.96
2022-11-15T09:04:05.728Z,88.93
2022-11-15T09:06:54.412Z,89.17
2022-11-15T09:09:42.824Z,89.32
2022-11-15T09:12:30.408Z,89.43
2022-11-15T09:15:17.131Z,88.86
2022-11-15T09:18:03.457Z,88.79
2022-11-15T09:20:49.114Z,88.75
2022-11-15T09:23:34.945Z,88.82
2022-11-15T09:26:23.104Z,88.74
2022-11-15T09:29:10.058Z,88.72
2022-11-15T09:31:56.830Z,88.84
2022-11-15T09:34:43.414Z,88.92
2022-11-15T09:37:29.313Z,88.59
2022-11-15T09:40:19.981Z,88.42
2022-11-15T09:43:14.017Z,88.71
2022-11-15T09:46:02.768Z,88.85
2022-11-15T09:49:05.763Z,88.75
2022-11-15T09:51:52.331Z,88.83
2022-11-15T09:57:25.046Z,89.05
2022-11-15T10:00:44.687Z,88.69
2022-11-15T10:03:10.767Z,88.76
2022-11-15T10:05:42.040Z,88.79
2022-11-15T10:08:26.661Z,88.79
2022-11-15T10:13:56.588Z,89.12
2022-11-15T10:21:18.273Z,89.03
2022-11-15T10:23:46.236Z,88.66
2022-11-15T10:26:17.122Z,88.94
2022-11-15T10:28:44.850Z,89.39
2022-11-15T10:31:26.928Z,89.08
2022-11-15T10:34:22.043Z,89.39
2022-11-15T10:37:02.599Z,88.68
2022-11-15T10:39:32.925Z,88.64
2022-11-15T10:42:29.848Z,88.85
2022-11-15T10:44:59.086Z,88.97
2022-11-15T10:47:38.874Z,88.67
2022-11-15T10:50:28.473Z,89.22
2022-11-15T10:52:57.253Z,89.19
2022-11-15T10:55:31.201Z,89.18
2022-11-15T10:58:09.071Z,88.96
2022-11-15T11:00:40.216Z,88.94
2022-11-15T11:03:34.092Z,89.47
2022-11-15T11:06:16.327Z,89.04
2022-11-15T11:08:58.542Z,89.05
2022-11-15T11:11:55.024Z,89.31
2022-11-15T11:14:28.383Z,89.08
2022-11-15T11:16:59.158Z,88.87
2022-11-15T11:19:55.424Z,88.94
2022-11-15T11:22:31.426Z,88.97
2022-11-15T11:25:22.970Z,88.62
2022-11-15T11:27:56.231Z,89.00
2022-11-15T11:30:31.177Z,89.26
2022-11-15T11:33:19.457Z,89.34
2022-11-15T11:36:17.130Z,89.23
2022-11-15T11:38:47.280Z,89.28
2022-11-15T11:41:37.797Z,89.21
2022-11-15T11:44:08.005Z,89.10
2022-11-15T11:46:50.247Z,88.60
2022-11-15T11:49:31.201Z,88.85
2022-11-15T11:52:24.584Z,89.56
2022-11-15T11:55:13.479Z,89.64
2022-11-15T11:58:09.473Z,89.84
2022-11-15T12:00:44.062Z,89.76
2022-11-15T12:03:30.783Z,89.45
2022-11-15T12:06:07.619Z,89.35
2022-11-15T12:08:51.438Z,89.50
2022-11-15T12:11:23.094Z,89.51
2022-11-15T12:13:59.432Z,89.57
2022-11-15T12:16:34.320Z,89.31
2022-11-15T12:19:05.525Z,89.56
2022-11-15T12:22:16.466Z,89.38
2022-11-15T12:24:54.076Z,89.01
2022-11-15T12:27:41.894Z,89.26
2022-11-15T12:30:21.545Z,89.63
2022-11-15T12:32:59.626Z,89.56
2022-11-15T12:35:35.135Z,88.74
2022-11-15T12:38:05.613Z,88.72
2022-11-15T12:40:40.282Z,88.71
2022-11-15T12:43:16.543Z,88.63
2022-11-15T12:45:46.741Z,87.98
2022-11-15T12:48:18.405Z,87.98
2022-11-15T12:50:52.586Z,88.85
2022-11-15T12:53:33.098Z,88.85
2022-11-15T12:56:12.595Z,89.06
2022-11-15T12:58:58.903Z,89.51
2022-11-15T13:01:35.828Z,89.44
2022-11-15T13:04:22.291Z,89.11
2022-11-15T13:07:05.135Z,89.44
2022-11-15T13:09:32.577Z,89.73
2022-11-15T13:12:08.257Z,89.52
2022-11-15T13:14:44.115Z,89.39
2022-11-15T13:17:28.990Z,89.58
2022-11-15T13:20:13.158Z,88.98
2022-11-15T13:22:53.157Z,89.31
2022-11-15T13:25:32.186Z,89.60
2022-11-15T13:28:06.635Z,89.17
2022-11-15T13:30:35.931Z,89.44
2022-11-15T13:33:16.932Z,88.75
2022-11-15T13:35:50.672Z,88.82
2022-11-15T13:38:27.518Z,89.02
2022-11-15T13:40:56.406Z,89.15
2022-11-15T13:43:24.686Z,88.76
2022-11-15T13:46:29.158Z,88.96
2022-11-15T13:49:13.425Z,88.78
2022-11-15T13:51:55.578Z,88.48
2022-11-15T13:54:47.204Z,88.18
2022-11-15T13:57:43.117Z,88.03
2022-11-15T14:00:43.952Z,88.77
2022-11-15T14:03:32.939Z,88.91
2022-11-15T14:06:15.537Z,89.00
2022-11-15T14:09:02.855Z,88.95
2022-11-15T14:11:31.615Z,89.00
2022-11-15T14:14:08.159Z,89.24
2022-11-15T14:17:50.577Z,88.97
2022-11-15T14:20:28.666Z,89.20
2022-11-15T14:23:00.542Z,89.14
2022-11-15T14:25:32.111Z,88.71
2022-11-15T14:28:28.633Z,88.62
2022-11-15T14:30:59.137Z,88.57
2022-11-15T14:33:37.060Z,88.55
2022-11-15T14:36:12.604Z,88.79
2022-11-15T14:38:43.369Z,88.89
2022-11-15T14:41:21.415Z,88.91
2022-11-15T14:43:51.652Z,88.59
2022-11-15T14:46:20.843Z,88.54
2022-11-15T14:48:48.932Z,88.46
2022-11-15T14:51:18.530Z,88.60
2022-11-15T14:53:48.998Z,88.70
2022-11-15T14:56:20.326Z,88.19
2022-11-15T14:58:49.331Z,88.28
2022-11-15T15:01:28.773Z,88.12
2022-11-15T15:03:57.699Z,88.26
2022-11-15T15:06:26.709Z,88.12
2022-11-15T15:08:55.877Z,88.77
2022-11-15T15:11:29.399Z,88.42
2022-11-15T15:14:01.755Z,88.06
2022-11-15T15:16:30.257Z,87.93
2022-11-15T15:18:58.404Z,87.95
2022-11-15T15:21:35.576Z,88.28
2022-11-15T15:24:05.820Z,88.19
2022-11-15T15:26:37.158Z,88.26
2022-11-15T15:29:06.380Z,87.94
2022-11-15T15:31:35.373Z,88.14
2022-11-15T15:34:04.529Z,88.45
2022-11-15T15:36:33.888Z,88.52
2022-11-15T15:39:05.527Z,88.36
2022-11-15T15:41:38.969Z,87.93
2022-11-15T15:44:07.605Z,88.11
2022-11-15T15:46:38.122Z,87.45
2022-11-15T15:49:15.166Z,87.85
2022-11-15T15:51:48.707Z,87.55
2022-11-15T15:54:20.319Z,87.10
2022-11-15T15:56:52.173Z,87.10
2022-11-15T15:59:24.461Z,87.01
2022-11-15T16:01:56.083Z,86.98
2022-11-15T16:04:27.573Z,86.73
2022-11-15T16:07:05.288Z,86.94
2022-11-15T16:09:51.605Z,86.70
2022-11-15T16:12:19.613Z,87.00
2022-11-15T16:14:47.512Z,87.08
2022-11-15T16:17:21.969Z,87.14
2022-11-15T16:24:22.649Z,87.48
2022-11-15T16:27:01.496Z,87.51
2022-11-15T16:29:29.586Z,87.36
2022-11-15T16:31:58.993Z,87.42
2022-11-15T16:34:31.159Z,87.18
2022-11-15T16:37:02.360Z,87.15
2022-11-15T16:39:33.099Z,87.24
2022-11-15T16:42:01.117Z,87.36
2022-11-15T16:44:29.525Z,87.19
2022-11-15T16:47:00.898Z,87.45
2022-11-15T16:49:31.630Z,87.27
2022-11-15T16:52:05.661Z,87.12
2022-11-15T16:54:36.195Z,87.27
2022-11-15T16:57:07.146Z,87.83
2022-11-15T16:59:38.543Z,87.86
2022-11-15T17:02:14.868Z,87.85
2022-11-15T17:04:51.159Z,87.77
2022-11-15T17:07:18.848Z,88.25
2022-11-15T17:09:48.192Z,88.08
2022-11-15T17:17:13.588Z,87.74
2022-11-15T17:19:41.522Z,88.12
2022-11-15T17:22:09.151Z,87.81
2022-11-15T17:24:40.031Z,87.79
2022-11-15T17:27:11.760Z,87.73
2022-11-15T17:29:42.910Z,87.18
2022-11-15T17:32:12.820Z,87.29
2022-11-15T17:34:42.950Z,87.30
2022-11-15T17:37:12.201Z,87.75
2022-11-15T17:39:40.888Z,87.64
2022-11-15T17:42:15.600Z,87.60
2022-11-15T17:44:48.041Z,87.51
2022-11-15T17:47:17.150Z,87.34
2022-11-15T17:49:46.499Z,87.24
2022-11-15T17:52:15.784Z,87.45
2022-11-15T17:54:46.794Z,87.33
2022-11-15T17:57:17.473Z,87.25
2022-11-15T17:59:48.947Z,87.22
2022-11-15T18:02:42.535Z,87.33
2022-11-15T18:10:09.322Z,88.14
2022-11-15T18:12:45.205Z,88.45
2022-11-15T18:15:17.601Z,88.30
2022-11-15T18:17:49.294Z,88.34
2022-11-15T18:20:24.275Z,88.05
